Time,TemperatureF,DewpointF,PressureIn,WindDirection,WindDirectionDegrees,WindSpeedMPH,WindSpeedGustMPH,Humidity,HourlyPrecipIn,Conditions,Clouds,dailyrainin,SoftwareType,DateUTC
2013-10-17 00:04:00,58.1,22.5,30.00,NNW,338,0.0,0.0,25,0.00,,---,0.00,VWS V14.01,2013-10-17 07:04:00,
2013-10-17 00:09:00,58.1,22.5,30.00,NNW,338,1.6,1.6,25,0.00,,---,0.00,VWS V14.01,2013-10-17 07:09:00,
2013-10-17 00:14:00,57.7,22.2,30.00,NNE,22,0.0,0.0,25,0.00,,---,0.00,VWS V14.01,2013-10-17 07:14:00,
2013-10-17 00:19:00,57.6,22.0,30.00,North,0,1.3,1.3,25,0.00,,---,0.00,VWS V14.01,2013-10-17 07:19:00,
2013-10-17 00:24:00,57.2,22.6,30.00,North,0,0.0,0.0,26,0.00,,---,0.00,VWS V14.01,2013-10-17 07:24:00,
2013-10-17 00:29:00,56.8,22.3,30.00,NNW,338,1.6,1.6,26,0.00,,---,0.00,VWS V14.01,2013-10-17 07:29:00,
2013-10-17 00:34:00,56.7,22.2,30.00,North,0,0.9,0.9,26,0.00,,---,0.00,VWS V14.01,2013-10-17 07:34:00,
2013-10-17 00:39:00,56.1,21.7,30.00,North,0,0.0,0.0,26,0.00,,---,0.00,VWS V14.01,2013-10-17 07:39:00,
2013-10-17 00:44:00,55.6,21.3,30.00,South,180,0.0,0.0,26,0.00,,---,0.00,VWS V14.01,2013-10-17 07:44:00,
2013-10-17 00:49:00,55.0,20.8,30.00,ESE,112,1.6,1.6,26,0.00,,---,0.00,VWS V14.01,2013-10-17 07:49:00,
2013-10-17 00:54:00,54.5,20.3,30.00,ESE,112,0.9,1.1,26,0.00,,---,0.00,VWS V14.01,2013-10-17 07:54:00,
2013-10-17 00:59:00,53.8,19.7,30.00,ESE,112,0.9,0.9,26,0.00,,---,0.00,VWS V14.01,2013-10-17 07:59:00,
2013-10-17 01:05:00,53.2,20.1,30.00,ESE,112,0.0,0.0,27,0.00,,---,0.00,VWS V14.01,2013-10-17 08:05:00,
2013-10-17 01:10:00,52.7,19.7,30.00,ESE,112,0.0,0.0,27,0.00,,---,0.00,VWS V14.01,2013-10-17 08:10:00,
2013-10-17 01:15:00,52.9,19.8,30.00,North,0,2.5,2.5,27,0.00,,---,0.00,VWS V14.01,2013-10-17 08:15:00,
2013-10-17 01:20:00,52.7,19.7,30.00,NNE,22,2.5,2.5,27,0.00,,---,0.00,VWS V14.01,2013-10-17 08:20:00,
2013-10-17 01:25:00,52.3,19.4,30.00,North,0,2.2,2.2,27,0.00,,---,0.00,VWS V14.01,2013-10-17 08:25:00,
2013-10-17 01:30:00,52.0,19.1,30.00,North,0,0.0,0.9,27,0.00,,---,0.00,VWS V14.01,2013-10-17 08:30:00,
2013-10-17 01:35:00,51.8,18.9,30.00,North,0,0.0,0.0,27,0.00,,---,0.00,VWS V14.01,2013-10-17 08:35:00,
2013-10-17 01:40:00,51.6,19.6,30.00,North,0,1.3,1.3,28,0.00,,---,0.00,VWS V14.01,2013-10-17 08:40:00,
2013-10-17 01:45:00,51.8,19.8,30.00,NNW,338,2.0,2.0,28,0.00,,---,0.00,VWS V14.01,2013-10-17 08:45:00,
2013-10-17 01:50:00,51.8,19.8,30.00,NNW,338,1.3,1.6,28,0.00,,---,0.00,VWS V14.01,2013-10-17 08:50:00,
2013-10-17 01:55:00,52.0,19.9,30.00,NNW,338,0.0,2.0,28,0.00,,---,0.00,VWS V14.01,2013-10-17 08:55:00,
2013-10-17 02:00:00,51.8,19.8,30.00,NNW,338,0.0,0.9,28,0.00,,---,0.00,VWS V14.01,2013-10-17 09:00:00,
2013-10-17 02:05:00,52.5,20.4,30.00,NNW,338,1.6,1.6,28,0.00,,---,0.00,VWS V14.01,2013-10-17 09:05:00,
2013-10-17 02:10:00,52.7,20.5,30.00,NNW,338,2.0,2.0,28,0.00,,---,0.00,VWS V14.01,2013-10-17 09:10:00,
2013-10-17 02:15:00,53.2,21.0,30.00,North,0,1.1,1.3,28,0.00,,---,0.00,VWS V14.01,2013-10-17 09:15:00,
2013-10-17 02:20:00,53.4,21.1,30.00,NW,315,1.3,1.6,28,0.00,,---,0.00,VWS V14.01,2013-10-17 09:20:00,
2013-10-17 02:25:00,53.6,21.3,30.00,NNW,338,2.0,2.0,28,0.00,,---,0.00,VWS V14.01,2013-10-17 09:25:00,
2013-10-17 02:30:00,53.6,21.3,30.00,NNW,338,2.0,2.0,28,0.00,,---,0.00,VWS V14.01,2013-10-17 09:30:00,
2013-10-17 02:36:00,53.8,21.5,30.00,NNW,338,1.6,1.6,28,0.00,,---,0.00,VWS V14.01,2013-10-17 09:36:00,
2013-10-17 02:41:00,53.8,21.5,30.00,NNW,338,2.0,2.0,28,0.00,,---,0.00,VWS V14.01,2013-10-17 09:41:00,
2013-10-17 02:46:00,53.6,21.3,30.00,NNW,338,2.7,2.7,28,0.00,,---,0.00,VWS V14.01,2013-10-17 09:46:00,
2013-10-17 02:51:00,53.4,21.1,30.00,NNW,338,2.0,2.0,28,0.00,,---,0.00,VWS V14.01,2013-10-17 09:51:00,
2013-10-17 02:56:00,53.1,20.8,30.00,NNW,338,1.3,1.3,28,0.00,,---,0.00,VWS V14.01,2013-10-17 09:56:00,
2013-10-17 03:01:00,52.7,20.5,30.00,NNW,338,0.9,0.9,28,0.00,,---,0.00,VWS V14.01,2013-10-17 10:01:00,
2013-10-17 03:06:00,52.3,20.2,30.00,North,0,0.9,0.9,28,0.00,,---,0.00,VWS V14.01,2013-10-17 10:06:00,
2013-10-17 03:11:00,51.8,20.6,30.00,NNW,338,2.0,2.0,29,0.00,,---,0.00,VWS V14.01,2013-10-17 10:11:00,
2013-10-17 03:16:00,51.6,20.4,30.00,North,0,1.1,1.1,29,0.00,,---,0.00,VWS V14.01,2013-10-17 10:16:00,
2013-10-17 03:21:00,51.3,20.1,30.00,NNW,338,0.0,0.0,29,0.00,,---,0.00,VWS V14.01,2013-10-17 10:21:00,
2013-10-17 03:27:00,50.9,19.8,30.00,NNW,338,0.0,0.0,29,0.00,,---,0.00,VWS V14.01,2013-10-17 10:27:00,
2013-10-17 03:32:00,50.4,19.3,30.00,NNW,338,0.0,0.0,29,0.00,,---,0.00,VWS V14.01,2013-10-17 10:32:00,
2013-10-17 03:37:00,50.2,19.2,30.00,NNW,338,0.0,0.0,29,0.00,,---,0.00,VWS V14.01,2013-10-17 10:37:00,
2013-10-17 03:42:00,50.2,19.2,30.00,NNW,338,0.0,0.0,29,0.00,,---,0.00,VWS V14.01,2013-10-17 10:42:00,
2013-10-17 03:47:00,49.8,19.6,30.00,ENE,68,0.0,0.0,30,0.00,,---,0.00,VWS V14.01,2013-10-17 10:47:00,
2013-10-17 03:52:00,50.4,20.1,30.00,North,0,2.0,2.0,30,0.00,,---,0.00,VWS V14.01,2013-10-17 10:52:00,
2013-10-17 03:57:00,50.4,20.1,30.00,NNE,22,0.9,0.9,30,0.00,,---,0.00,VWS V14.01,2013-10-17 10:57:00,
2013-10-17 04:02:00,50.4,22.4,30.00,NNW,338,0.9,1.3,33,0.00,,---,0.00,VWS V14.01,2013-10-17 11:02:00,
2013-10-17 04:07:00,50.2,20.7,30.00,NNW,338,0.0,0.0,31,0.00,,---,0.00,VWS V14.01,2013-10-17 11:07:00,
2013-10-17 04:12:00,50.2,20.7,30.00,NNW,338,0.0,0.0,31,0.00,,---,0.00,VWS V14.01,2013-10-17 11:12:00,
2013-10-17 04:17:00,50.0,20.6,30.00,NNW,338,0.0,0.0,31,0.00,,---,0.00,VWS V14.01,2013-10-17 11:17:00,
2013-10-17 04:22:00,50.0,20.6,30.00,North,0,0.0,0.0,31,0.00,,---,0.00,VWS V14.01,2013-10-17 11:22:00,
2013-10-17 04:27:00,49.6,20.3,30.00,NNW,338,0.0,0.0,31,0.00,,---,0.00,VWS V14.01,2013-10-17 11:27:00,
2013-10-17 04:32:00,49.6,20.3,30.00,NNW,338,0.0,0.0,31,0.00,,---,0.00,VWS V14.01,2013-10-17 11:32:00,
2013-10-17 04:38:00,49.5,20.1,30.00,NNW,338,0.0,0.0,31,0.00,,---,0.00,VWS V14.01,2013-10-17 11:38:00,
2013-10-17 04:43:00,49.3,19.9,30.00,NNW,338,0.0,0.0,31,0.00,,---,0.00,VWS V14.01,2013-10-17 11:43:00,
2013-10-17 04:48:00,49.1,19.8,30.00,NNW,338,0.9,0.9,31,0.00,,---,0.00,VWS V14.01,2013-10-17 11:48:00,
2013-10-17 04:53:00,48.7,19.5,30.00,NNW,338,0.0,0.0,31,0.00,,---,0.00,VWS V14.01,2013-10-17 11:53:00,
2013-10-17 04:58:00,48.7,19.5,30.00,NNW,338,0.0,0.0,31,0.00,,---,0.00,VWS V14.01,2013-10-17 11:58:00,
2013-10-17 05:03:00,48.7,19.5,30.00,NNW,338,0.9,0.9,31,0.00,,---,0.00,VWS V14.01,2013-10-17 12:03:00,
2013-10-17 05:08:00,48.6,19.3,30.00,North,0,0.0,0.9,31,0.00,,---,0.00,VWS V14.01,2013-10-17 12:08:00,
2013-10-17 05:13:00,48.6,19.3,30.00,NNW,338,0.0,0.0,31,0.00,,---,0.00,VWS V14.01,2013-10-17 12:13:00,
2013-10-17 05:18:00,48.4,19.2,30.00,NNW,338,0.0,0.9,31,0.00,,---,0.00,VWS V14.01,2013-10-17 12:18:00,
2013-10-17 05:23:00,48.4,19.9,30.00,NNW,338,0.0,0.0,32,0.00,,---,0.00,VWS V14.01,2013-10-17 12:23:00,
2013-10-17 05:28:00,48.6,20.8,30.00,NNW,338,1.3,1.3,33,0.00,,---,0.00,VWS V14.01,2013-10-17 12:28:00,
2013-10-17 05:33:00,48.4,19.9,30.00,North,0,1.1,1.3,32,0.00,,---,0.00,VWS V14.01,2013-10-17 12:33:00,
2013-10-17 05:39:00,48.4,19.9,30.00,NNW,338,0.0,0.0,32,0.00,,---,0.00,VWS V14.01,2013-10-17 12:39:00,
2013-10-17 05:44:00,48.2,19.7,30.00,NNW,338,0.0,0.0,32,0.00,,---,0.00,VWS V14.01,2013-10-17 12:44:00,
2013-10-17 05:49:00,48.2,20.5,30.00,NNW,338,1.1,1.1,33,0.00,,---,0.00,VWS V14.01,2013-10-17 12:49:00,
2013-10-17 05:54:00,48.4,21.3,30.00,North,0,1.6,1.6,34,0.00,,---,0.00,VWS V14.01,2013-10-17 12:54:00,
2013-10-17 05:59:00,48.4,20.6,30.00,North,0,1.6,1.6,33,0.00,,---,0.00,VWS V14.01,2013-10-17 12:59:00,
2013-10-17 06:04:00,48.6,20.8,30.00,NNW,338,2.0,2.0,33,0.00,,---,0.00,VWS V14.01,2013-10-17 13:04:00,
2013-10-17 06:09:00,48.4,20.6,30.00,NNW,338,2.0,2.0,33,0.00,,---,0.00,VWS V14.01,2013-10-17 13:09:00,
2013-10-17 06:14:00,48.2,20.5,30.03,NNW,338,0.0,0.0,33,0.00,,---,0.00,VWS V14.01,2013-10-17 13:14:00,
2013-10-17 06:19:00,47.8,20.1,30.03,NNE,22,0.0,0.0,33,0.00,,---,0.00,VWS V14.01,2013-10-17 13:19:00,
2013-10-17 06:24:00,47.7,20.7,30.03,NNE,22,0.0,0.0,34,0.00,,---,0.00,VWS V14.01,2013-10-17 13:24:00,
2013-10-17 06:29:00,47.5,20.5,30.03,NNE,22,0.0,0.0,34,0.00,,---,0.00,VWS V14.01,2013-10-17 13:29:00,
2013-10-17 06:35:00,47.3,21.0,30.03,NNE,22,0.0,0.0,35,0.00,,---,0.00,VWS V14.01,2013-10-17 13:35:00,
2013-10-17 06:40:00,47.5,21.2,30.03,NNE,22,0.0,0.0,35,0.00,,---,0.00,VWS V14.01,2013-10-17 13:40:00,
2013-10-17 06:45:00,47.5,21.9,30.03,NNE,22,0.0,0.0,36,0.00,,---,0.00,VWS V14.01,2013-10-17 13:45:00,
2013-10-17 06:50:00,47.7,22.0,30.03,NNE,22,0.0,0.0,36,0.00,,---,0.00,VWS V14.01,2013-10-17 13:50:00,
2013-10-17 06:55:00,47.8,22.2,30.03,North,0,1.1,1.1,36,0.00,,---,0.00,VWS V14.01,2013-10-17 13:55:00,
2013-10-17 07:00:00,48.0,23.0,30.03,North,0,1.1,1.1,37,0.00,,---,0.00,VWS V14.01,2013-10-17 14:00:00,
2013-10-17 07:05:00,48.6,23.5,30.03,North,0,1.1,1.1,37,0.00,,---,0.00,VWS V14.01,2013-10-17 14:05:00,
2013-10-17 07:10:00,49.5,23.6,30.03,North,0,1.1,1.1,36,0.00,,---,0.00,VWS V14.01,2013-10-17 14:10:00,
2013-10-17 07:15:00,50.2,24.3,30.03,North,0,1.1,1.1,36,0.00,,---,0.00,VWS V14.01,2013-10-17 14:15:00,
2013-10-17 07:20:00,50.7,24.8,30.03,North,0,1.1,1.1,36,0.00,,---,0.00,VWS V14.01,2013-10-17 14:20:00,
2013-10-17 07:25:00,51.6,25.6,30.03,North,0,1.1,1.1,36,0.00,,---,0.00,VWS V14.01,2013-10-17 14:25:00,
2013-10-17 07:30:00,52.3,26.2,30.03,North,0,1.1,1.1,36,0.00,,---,0.00,VWS V14.01,2013-10-17 14:30:00,
2013-10-17 07:35:00,53.1,26.8,30.03,North,0,1.1,1.1,36,0.00,,---,0.00,VWS V14.01,2013-10-17 14:35:00,
2013-10-17 07:40:00,53.8,26.1,30.03,North,0,1.1,1.1,34,0.00,,---,0.00,VWS V14.01,2013-10-17 14:40:00,
2013-10-17 07:46:00,54.9,27.0,30.03,North,0,1.1,1.1,34,0.00,,---,0.00,VWS V14.01,2013-10-17 14:46:00,
2013-10-17 07:51:00,55.8,27.8,30.03,North,0,1.1,1.1,34,0.00,,---,0.00,VWS V14.01,2013-10-17 14:51:00,
2013-10-17 07:56:00,56.5,28.5,30.03,North,0,1.1,1.1,34,0.00,,---,0.00,VWS V14.01,2013-10-17 14:56:00,
2013-10-17 08:01:00,57.2,29.1,30.03,North,0,1.1,1.1,34,0.00,,---,0.00,VWS V14.01,2013-10-17 15:01:00,
2013-10-17 08:06:00,58.5,29.5,30.03,North,0,1.1,1.1,33,0.00,,---,0.00,VWS V14.01,2013-10-17 15:06:00,
2013-10-17 08:11:00,59.4,29.5,30.03,North,0,1.1,1.1,32,0.00,,---,0.00,VWS V14.01,2013-10-17 15:11:00,
2013-10-17 08:16:00,59.9,28.4,30.03,North,0,1.1,1.1,30,0.00,,---,0.00,VWS V14.01,2013-10-17 15:16:00,
2013-10-17 08:21:00,60.6,29.0,30.03,North,0,1.1,1.1,30,0.00,,---,0.00,VWS V14.01,2013-10-17 15:21:00,
2013-10-17 08:26:00,61.0,27.7,30.03,North,0,1.1,1.1,28,0.00,,---,0.00,VWS V14.01,2013-10-17 15:26:00,
2013-10-17 08:31:00,61.3,28.0,30.03,North,0,1.1,1.1,28,0.00,,---,0.00,VWS V14.01,2013-10-17 15:31:00,
2013-10-17 08:36:00,62.2,29.6,30.03,North,0,1.1,1.1,29,0.00,,---,0.00,VWS V14.01,2013-10-17 15:36:00,
2013-10-17 08:42:00,63.0,28.5,30.03,North,0,1.1,1.1,27,0.00,,---,0.00,VWS V14.01,2013-10-17 15:42:00,
2013-10-17 08:47:00,63.5,28.0,30.03,North,0,1.1,1.1,26,0.00,,---,0.00,VWS V14.01,2013-10-17 15:47:00,
2013-10-17 08:52:00,64.0,29.4,30.03,North,0,1.1,1.1,27,0.00,,---,0.00,VWS V14.01,2013-10-17 15:52:00,
2013-10-17 08:57:00,64.6,29.9,30.03,North,0,1.1,1.1,27,0.00,,---,0.00,VWS V14.01,2013-10-17 15:57:00,
2013-10-17 09:02:00,65.1,29.4,30.03,North,0,1.1,1.1,26,0.00,,---,0.00,VWS V14.01,2013-10-17 16:02:00,
2013-10-17 09:07:00,65.7,29.9,30.03,North,0,1.1,1.1,26,0.00,,---,0.00,VWS V14.01,2013-10-17 16:07:00,
2013-10-17 09:12:00,66.4,30.5,30.03,North,0,1.1,1.1,26,0.00,,---,0.00,VWS V14.01,2013-10-17 16:12:00,
2013-10-17 09:17:00,67.1,31.1,30.03,North,0,1.1,1.1,26,0.00,,---,0.00,VWS V14.01,2013-10-17 16:17:00,
2013-10-17 09:22:00,67.6,31.6,30.03,North,0,1.1,1.1,26,0.00,,---,0.00,VWS V14.01,2013-10-17 16:22:00,
2013-10-17 09:27:00,68.0,30.9,30.03,North,0,1.1,1.1,25,0.00,,---,0.00,VWS V14.01,2013-10-17 16:27:00,
2013-10-17 09:32:00,68.5,31.4,30.03,North,0,1.1,1.1,25,0.00,,---,0.00,VWS V14.01,2013-10-17 16:32:00,
2013-10-17 09:37:00,69.1,31.8,30.03,North,0,1.1,1.1,25,0.00,,---,0.00,VWS V14.01,2013-10-17 16:37:00,
2013-10-17 09:42:00,69.6,32.3,30.03,North,0,1.1,1.1,25,0.00,,---,0.00,VWS V14.01,2013-10-17 16:42:00,
2013-10-17 09:47:00,70.0,31.6,30.03,North,0,1.1,1.1,24,0.00,,---,0.00,VWS V14.01,2013-10-17 16:47:00,
2013-10-17 09:52:00,70.5,32.0,30.03,North,0,1.1,1.1,24,0.00,,---,0.00,VWS V14.01,2013-10-17 16:52:00,
2013-10-17 09:58:00,71.1,32.5,30.03,North,0,1.1,1.1,24,0.00,,---,0.00,VWS V14.01,2013-10-17 16:58:00,
2013-10-17 10:03:00,71.4,32.8,30.03,North,0,1.1,1.1,24,0.00,,---,0.00,VWS V14.01,2013-10-17 17:03:00,
2013-10-17 10:08:00,72.0,33.2,30.03,North,0,1.1,1.1,24,0.00,,---,0.00,VWS V14.01,2013-10-17 17:08:00,
2013-10-17 10:13:00,72.5,33.7,30.03,North,0,1.1,1.1,24,0.00,,---,0.00,VWS V14.01,2013-10-17 17:13:00,
2013-10-17 10:18:00,72.9,34.0,30.03,North,0,1.1,1.1,24,0.00,,---,0.00,VWS V14.01,2013-10-17 17:18:00,
2013-10-17 10:23:00,73.2,33.2,30.03,North,0,1.1,1.1,23,0.00,,---,0.00,VWS V14.01,2013-10-17 17:23:00,
2013-10-17 10:28:00,73.6,33.5,30.00,North,0,1.1,1.1,23,0.00,,---,0.00,VWS V14.01,2013-10-17 17:28:00,
2013-10-17 10:33:00,74.3,34.1,30.00,North,0,1.1,1.1,23,0.00,,---,0.00,VWS V14.01,2013-10-17 17:33:00,
2013-10-17 10:38:00,74.7,34.4,30.00,North,0,1.1,1.1,23,0.00,,---,0.00,VWS V14.01,2013-10-17 17:38:00,
2013-10-17 10:43:00,75.0,34.7,30.00,North,0,1.1,1.1,23,0.00,,---,0.00,VWS V14.01,2013-10-17 17:43:00,
2013-10-17 10:49:00,75.2,33.8,30.00,North,0,1.1,1.1,22,0.00,,---,0.00,VWS V14.01,2013-10-17 17:49:00,
2013-10-17 10:54:00,75.4,33.9,30.00,North,0,1.1,1.1,22,0.00,,---,0.00,VWS V14.01,2013-10-17 17:54:00,
2013-10-17 10:59:00,75.9,34.4,30.00,North,0,1.1,1.1,22,0.00,,---,0.00,VWS V14.01,2013-10-17 17:59:00,
2013-10-17 11:04:00,76.5,34.8,30.00,North,0,1.1,1.1,22,0.00,,---,0.00,VWS V14.01,2013-10-17 18:04:00,
2013-10-17 11:09:00,76.6,35.0,30.00,North,0,1.1,1.1,22,0.00,,---,0.00,VWS V14.01,2013-10-17 18:09:00,
2013-10-17 11:14:00,76.6,35.0,30.00,North,0,1.1,1.1,22,0.00,,---,0.00,VWS V14.01,2013-10-17 18:14:00,
2013-10-17 11:19:00,76.8,35.1,30.00,North,0,1.1,1.1,22,0.00,,---,0.00,VWS V14.01,2013-10-17 18:19:00,
2013-10-17 11:25:00,76.6,33.8,30.00,North,0,1.1,1.1,21,0.00,,---,0.00,VWS V14.01,2013-10-17 18:25:00,
2013-10-17 11:30:00,76.6,33.8,29.97,North,0,1.1,1.1,21,0.00,,---,0.00,VWS V14.01,2013-10-17 18:30:00,
2013-10-17 11:35:00,76.8,34.0,29.97,North,0,1.1,1.1,21,0.00,,---,0.00,VWS V14.01,2013-10-17 18:35:00,
2013-10-17 11:40:00,76.8,34.0,29.97,North,0,1.1,1.1,21,0.00,,---,0.00,VWS V14.01,2013-10-17 18:40:00,
2013-10-17 11:45:00,77.4,34.4,29.97,North,0,1.1,1.1,21,0.00,,---,0.00,VWS V14.01,2013-10-17 18:45:00,
2013-10-17 11:50:00,77.0,34.1,29.97,North,0,1.1,1.1,21,0.00,,---,0.00,VWS V14.01,2013-10-17 18:50:00,
2013-10-17 11:55:00,77.2,34.3,29.97,North,0,1.1,1.1,21,0.00,,---,0.00,VWS V14.01,2013-10-17 18:55:00,
2013-10-17 12:00:00,77.5,34.6,29.97,North,0,1.1,1.1,21,0.00,,---,0.00,VWS V14.01,2013-10-17 19:00:00,
2013-10-17 12:05:00,77.5,34.6,29.97,North,0,1.1,1.1,21,0.00,,---,0.00,VWS V14.01,2013-10-17 19:05:00,
2013-10-17 12:10:00,77.4,33.2,29.97,North,0,1.1,1.1,20,0.00,,---,0.00,VWS V14.01,2013-10-17 19:10:00,
2013-10-17 12:15:00,77.4,33.2,29.94,North,0,1.1,1.1,20,0.00,,---,0.00,VWS V14.01,2013-10-17 19:15:00,
2013-10-17 12:20:00,77.0,32.9,29.94,North,0,1.1,1.1,20,0.00,,---,0.00,VWS V14.01,2013-10-17 19:20:00,
2013-10-17 12:26:00,77.0,32.9,29.94,North,0,1.1,1.1,20,0.00,,---,0.00,VWS V14.01,2013-10-17 19:26:00,
2013-10-17 12:31:00,77.9,33.6,29.94,North,0,1.1,1.1,20,0.00,,---,0.00,VWS V14.01,2013-10-17 19:31:00,
2013-10-17 12:36:00,78.1,33.8,29.94,North,0,1.1,1.1,20,0.00,,---,0.00,VWS V14.01,2013-10-17 19:36:00,
2013-10-17 12:41:00,78.3,33.9,29.94,North,0,1.1,1.1,20,0.00,,---,0.00,VWS V14.01,2013-10-17 19:41:00,
2013-10-17 12:46:00,78.3,33.9,29.94,North,0,1.1,1.1,20,0.00,,---,0.00,VWS V14.01,2013-10-17 19:46:00,
2013-10-17 12:51:00,78.3,33.9,29.94,North,0,1.1,1.1,20,0.00,,---,0.00,VWS V14.01,2013-10-17 19:51:00,
2013-10-17 12:56:00,78.4,34.1,29.94,North,0,1.1,1.1,20,0.00,,---,0.00,VWS V14.01,2013-10-17 19:56:00,
2013-10-17 13:01:00,78.8,34.4,29.94,North,0,1.1,1.1,20,0.00,,---,0.00,VWS V14.01,2013-10-17 20:01:00,
2013-10-17 13:06:00,79.2,34.7,29.94,North,0,1.1,1.1,20,0.00,,---,0.00,VWS V14.01,2013-10-17 20:06:00,
2013-10-17 13:11:00,79.5,35.0,29.91,North,0,1.1,1.1,20,0.00,,---,0.00,VWS V14.01,2013-10-17 20:11:00,
2013-10-17 13:16:00,79.9,35.3,29.91,North,0,1.1,1.1,20,0.00,,---,0.00,VWS V14.01,2013-10-17 20:16:00,
2013-10-17 13:21:00,80.1,35.4,29.91,North,0,1.1,1.1,20,0.00,,---,0.00,VWS V14.01,2013-10-17 20:21:00,
2013-10-17 13:27:00,80.2,35.6,29.91,North,0,1.1,1.1,20,0.00,,---,0.00,VWS V14.01,2013-10-17 20:27:00,
2013-10-17 13:32:00,79.5,30.9,29.91,North,0,1.1,1.1,17,0.00,,---,0.00,VWS V14.01,2013-10-17 20:32:00,
2013-10-17 13:37:00,79.7,35.1,29.91,North,0,1.1,1.1,20,0.00,,---,0.00,VWS V14.01,2013-10-17 20:37:00,
2013-10-17 13:42:00,80.2,35.6,29.91,North,0,1.1,1.1,20,0.00,,---,0.00,VWS V14.01,2013-10-17 20:42:00,
2013-10-17 13:47:00,80.4,35.7,29.91,North,0,1.1,1.1,20,0.00,,---,0.00,VWS V14.01,2013-10-17 20:47:00,
2013-10-17 13:52:00,80.6,34.6,29.91,North,0,1.1,1.1,19,0.00,,---,0.00,VWS V14.01,2013-10-17 20:52:00,
2013-10-17 13:57:00,80.6,34.6,29.91,North,0,1.1,1.1,19,0.00,,---,0.00,VWS V14.01,2013-10-17 20:57:00,
2013-10-17 14:02:00,80.8,34.7,29.91,North,0,1.1,1.1,19,0.00,,---,0.00,VWS V14.01,2013-10-17 21:02:00,
2013-10-17 14:07:00,80.8,34.7,29.91,North,0,1.1,1.1,19,0.00,,---,0.00,VWS V14.01,2013-10-17 21:07:00,
2013-10-17 14:12:00,80.1,35.4,29.91,North,0,1.1,1.1,20,0.00,,---,0.00,VWS V14.01,2013-10-17 21:12:00,
2013-10-17 14:17:00,80.4,35.7,29.91,North,0,1.1,1.1,20,0.00,,---,0.00,VWS V14.01,2013-10-17 21:17:00,
2013-10-17 14:23:00,80.8,34.7,29.91,North,0,1.1,1.1,19,0.00,,---,0.00,VWS V14.01,2013-10-17 21:23:00,
2013-10-17 14:28:00,81.0,34.9,29.91,North,0,1.1,1.1,19,0.00,,---,0.00,VWS V14.01,2013-10-17 21:28:00,
2013-10-17 14:33:00,81.1,35.0,29.91,North,0,1.1,1.1,19,0.00,,---,0.00,VWS V14.01,2013-10-17 21:33:00,
2013-10-17 14:38:00,81.5,35.3,29.91,North,0,1.1,1.1,19,0.00,,---,0.00,VWS V14.01,2013-10-17 21:38:00,
2013-10-17 14:43:00,81.1,35.0,29.91,North,0,1.1,1.1,19,0.00,,---,0.00,VWS V14.01,2013-10-17 21:43:00,
2013-10-17 14:48:00,81.1,35.0,29.91,North,0,1.1,1.1,19,0.00,,---,0.00,VWS V14.01,2013-10-17 21:48:00,
2013-10-17 14:53:00,81.3,32.4,29.91,North,0,1.1,1.1,17,0.00,,---,0.00,VWS V14.01,2013-10-17 21:53:00,
2013-10-17 14:58:00,80.8,32.0,29.91,North,0,1.1,1.1,17,0.00,,---,0.00,VWS V14.01,2013-10-17 21:58:00,
2013-10-17 15:03:00,80.2,31.5,29.91,North,0,1.1,1.1,17,0.00,,---,0.00,VWS V14.01,2013-10-17 22:03:00,
2013-10-17 15:09:00,80.1,31.4,29.91,North,0,1.1,1.1,17,0.00,,---,0.00,VWS V14.01,2013-10-17 22:09:00,
2013-10-17 15:14:00,80.6,31.8,29.91,North,0,1.1,1.1,17,0.00,,---,0.00,VWS V14.01,2013-10-17 22:14:00,
2013-10-17 15:19:00,81.0,32.1,29.91,North,0,1.1,1.1,17,0.00,,---,0.00,VWS V14.01,2013-10-17 22:19:00,
2013-10-17 15:24:00,81.0,34.9,29.91,North,0,1.1,1.1,19,0.00,,---,0.00,VWS V14.01,2013-10-17 22:24:00,
2013-10-17 15:29:00,81.0,32.1,29.88,North,0,1.1,1.1,17,0.00,,---,0.00,VWS V14.01,2013-10-17 22:29:00,
2013-10-17 15:34:00,81.0,32.1,29.88,North,0,1.1,1.1,17,0.00,,---,0.00,VWS V14.01,2013-10-17 22:34:00,
2013-10-17 15:39:00,80.8,32.0,29.88,North,0,1.1,1.1,17,0.00,,---,0.00,VWS V14.01,2013-10-17 22:39:00,
2013-10-17 15:44:00,80.6,31.8,29.91,North,0,1.1,1.1,17,0.00,,---,0.00,VWS V14.01,2013-10-17 22:44:00,
2013-10-17 15:49:00,80.6,31.8,29.91,North,0,1.1,1.1,17,0.00,,---,0.00,VWS V14.01,2013-10-17 22:49:00,
2013-10-17 15:54:00,80.4,31.7,29.91,North,0,1.1,1.1,17,0.00,,---,0.00,VWS V14.01,2013-10-17 22:54:00,
2013-10-17 16:00:00,80.4,31.7,29.88,North,0,1.1,1.1,17,0.00,,---,0.00,VWS V14.01,2013-10-17 23:00:00,
2013-10-17 16:05:00,80.2,31.5,29.88,North,0,1.1,1.1,17,0.00,,---,0.00,VWS V14.01,2013-10-17 23:05:00,
2013-10-17 16:10:00,80.2,31.5,29.88,North,0,1.1,1.1,17,0.00,,---,0.00,VWS V14.01,2013-10-17 23:10:00,
2013-10-17 16:15:00,79.7,31.1,29.88,North,0,1.1,1.1,17,0.00,,---,0.00,VWS V14.01,2013-10-17 23:15:00,
2013-10-17 16:20:00,79.7,31.1,29.88,North,0,1.1,1.1,17,0.00,,---,0.00,VWS V14.01,2013-10-17 23:20:00,
2013-10-17 16:25:00,79.7,31.1,29.88,North,0,1.1,1.1,17,0.00,,---,0.00,VWS V14.01,2013-10-17 23:25:00,
2013-10-17 16:30:00,79.5,30.9,29.88,North,0,1.1,1.1,17,0.00,,---,0.00,VWS V14.01,2013-10-17 23:30:00,
2013-10-17 16:35:00,79.3,30.8,29.88,North,0,1.1,1.1,17,0.00,,---,0.00,VWS V14.01,2013-10-17 23:35:00,
2013-10-17 16:40:00,78.8,30.4,29.88,North,0,1.1,1.1,17,0.00,,---,0.00,VWS V14.01,2013-10-17 23:40:00,
2013-10-17 16:46:00,78.1,31.2,29.88,North,0,1.1,1.1,18,0.00,,---,0.00,VWS V14.01,2013-10-17 23:46:00,
2013-10-17 16:51:00,77.5,30.7,29.88,North,0,1.1,1.1,18,0.00,,---,0.00,VWS V14.01,2013-10-17 23:51:00,
2013-10-17 16:56:00,77.0,30.3,29.88,North,0,1.1,1.1,18,0.00,,---,0.00,VWS V14.01,2013-10-17 23:56:00,
2013-10-17 17:01:00,76.5,29.9,29.88,North,0,1.1,1.1,18,0.00,,---,0.00,VWS V14.01,2013-10-18 00:01:00,
2013-10-17 17:06:00,75.7,29.3,29.88,North,0,1.1,1.1,18,0.00,,---,0.00,VWS V14.01,2013-10-18 00:06:00,
2013-10-17 17:11:00,75.4,29.0,29.88,North,0,1.1,1.1,18,0.00,,---,0.00,VWS V14.01,2013-10-18 00:11:00,
2013-10-17 17:16:00,74.7,28.4,29.88,North,0,1.1,1.1,18,0.00,,---,0.00,VWS V14.01,2013-10-18 00:16:00,
2013-10-17 17:21:00,73.9,27.8,29.88,North,0,1.1,1.1,18,0.00,,---,0.00,VWS V14.01,2013-10-18 00:21:00,
2013-10-17 17:26:00,73.4,27.4,29.88,North,0,1.1,1.1,18,0.00,,---,0.00,VWS V14.01,2013-10-18 00:26:00,
2013-10-17 17:31:00,72.9,28.2,29.88,North,0,1.1,1.1,19,0.00,,---,0.00,VWS V14.01,2013-10-18 00:31:00,
2013-10-17 17:37:00,72.1,27.6,29.88,North,0,1.1,1.1,19,0.00,,---,0.00,VWS V14.01,2013-10-18 00:37:00,
2013-10-17 17:42:00,71.6,27.2,29.88,North,0,1.1,1.1,19,0.00,,---,0.00,VWS V14.01,2013-10-18 00:42:00,
2013-10-17 17:47:00,71.1,26.8,29.88,North,0,1.1,1.1,19,0.00,,---,0.00,VWS V14.01,2013-10-18 00:47:00,
2013-10-17 17:52:00,70.5,26.3,29.88,North,0,1.1,1.1,19,0.00,,---,0.00,VWS V14.01,2013-10-18 00:52:00,
2013-10-17 17:57:00,70.2,26.0,29.88,North,0,1.1,1.1,19,0.00,,---,0.00,VWS V14.01,2013-10-18 00:57:00,
2013-10-17 18:02:00,69.6,26.8,29.88,North,0,1.1,1.1,20,0.00,,---,0.00,VWS V14.01,2013-10-18 01:02:00,
2013-10-17 18:07:00,69.1,26.4,29.88,North,0,1.1,1.1,20,0.00,,---,0.00,VWS V14.01,2013-10-18 01:07:00,
2013-10-17 18:12:00,68.7,26.1,29.91,North,0,1.1,1.1,20,0.00,,---,0.00,VWS V14.01,2013-10-18 01:12:00,
2013-10-17 18:17:00,68.4,25.8,29.91,North,0,1.1,1.1,20,0.00,,---,0.00,VWS V14.01,2013-10-18 01:17:00,
2013-10-17 18:22:00,68.0,25.5,29.91,North,0,1.1,1.1,20,0.00,,---,0.00,VWS V14.01,2013-10-18 01:22:00,
2013-10-17 18:28:00,67.6,25.2,29.91,North,0,1.1,1.1,20,0.00,,---,0.00,VWS V14.01,2013-10-18 01:28:00,
2013-10-17 18:33:00,67.5,25.0,29.91,North,0,1.1,1.1,20,0.00,,---,0.00,VWS V14.01,2013-10-18 01:33:00,
2013-10-17 18:38:00,67.3,24.9,29.91,North,0,1.1,1.1,20,0.00,,---,0.00,VWS V14.01,2013-10-18 01:38:00,
2013-10-17 18:43:00,66.9,24.6,29.91,North,0,1.1,1.1,20,0.00,,---,0.00,VWS V14.01,2013-10-18 01:43:00,
2013-10-17 18:48:00,66.7,24.4,29.91,North,0,1.1,1.1,20,0.00,,---,0.00,VWS V14.01,2013-10-18 01:48:00,
2013-10-17 18:53:00,66.6,24.3,29.91,North,0,1.1,1.1,20,0.00,,---,0.00,VWS V14.01,2013-10-18 01:53:00,
2013-10-17 18:58:00,66.4,24.1,29.91,North,0,1.1,1.1,20,0.00,,---,0.00,VWS V14.01,2013-10-18 01:58:00,
2013-10-17 19:03:00,65.8,23.7,29.91,North,0,1.1,1.1,20,0.00,,---,0.00,VWS V14.01,2013-10-18 02:03:00,
2013-10-17 19:08:00,65.7,26.9,29.91,North,0,1.1,1.1,23,0.00,,---,0.00,VWS V14.01,2013-10-18 02:08:00,
2013-10-17 19:13:00,65.5,26.7,29.91,North,0,1.1,1.1,23,0.00,,---,0.00,VWS V14.01,2013-10-18 02:13:00,
2013-10-17 19:18:00,65.3,26.6,29.91,North,0,1.1,1.1,23,0.00,,---,0.00,VWS V14.01,2013-10-18 02:18:00,
2013-10-17 19:23:00,65.3,26.6,29.91,North,0,1.1,1.1,23,0.00,,---,0.00,VWS V14.01,2013-10-18 02:23:00,
2013-10-17 19:28:00,64.9,26.3,29.91,North,0,1.1,1.1,23,0.00,,---,0.00,VWS V14.01,2013-10-18 02:28:00,
2013-10-17 19:34:00,64.4,25.8,29.91,NNW,338,1.3,1.3,23,0.00,,---,0.00,VWS V14.01,2013-10-18 02:34:00,
2013-10-17 19:39:00,64.2,25.7,29.91,NNW,338,2.0,2.0,23,0.00,,---,0.00,VWS V14.01,2013-10-18 02:39:00,
2013-10-17 19:44:00,64.2,23.5,29.91,North,0,1.6,1.6,21,0.00,,---,0.00,VWS V14.01,2013-10-18 02:44:00,
2013-10-17 19:49:00,64.2,23.5,29.91,North,0,2.0,2.0,21,0.00,,---,0.00,VWS V14.01,2013-10-18 02:49:00,
2013-10-17 19:54:00,64.2,23.5,29.91,NW,315,1.6,1.6,21,0.00,,---,0.00,VWS V14.01,2013-10-18 02:54:00,
2013-10-17 19:59:00,64.4,22.5,29.91,NW,315,1.6,1.6,20,0.00,,---,0.00,VWS V14.01,2013-10-18 02:59:00,
2013-10-17 20:04:00,64.2,23.5,29.91,NNW,338,1.1,1.1,21,0.00,,---,0.00,VWS V14.01,2013-10-18 03:04:00,
2013-10-17 20:09:00,63.9,23.2,29.91,NNE,22,2.0,2.0,21,0.00,,---,0.00,VWS V14.01,2013-10-18 03:09:00,
2013-10-17 20:14:00,63.9,23.2,29.91,NW,315,1.3,1.6,21,0.00,,---,0.00,VWS V14.01,2013-10-18 03:14:00,
2013-10-17 20:19:00,63.7,23.0,29.91,NW,315,0.9,1.6,21,0.00,,---,0.00,VWS V14.01,2013-10-18 03:19:00,
2013-10-17 20:24:00,63.1,22.6,29.91,NNW,338,2.5,2.5,21,0.00,,---,0.00,VWS V14.01,2013-10-18 03:24:00,
2013-10-17 20:29:00,63.0,22.5,29.91,NNE,22,1.6,1.6,21,0.00,,---,0.00,VWS V14.01,2013-10-18 03:29:00,
2013-10-17 20:34:00,63.1,22.6,29.91,NNW,338,2.2,2.2,21,0.00,,---,0.00,VWS V14.01,2013-10-18 03:34:00,
2013-10-17 20:39:00,63.0,24.6,29.91,North,0,1.3,2.5,23,0.00,,---,0.00,VWS V14.01,2013-10-18 03:39:00,
2013-10-17 20:44:00,62.8,22.3,29.91,NW,315,2.0,2.0,21,0.00,,---,0.00,VWS V14.01,2013-10-18 03:44:00,
2013-10-17 20:50:00,62.4,22.0,29.91,NE,45,2.5,2.7,21,0.00,,---,0.00,VWS V14.01,2013-10-18 03:50:00,
2013-10-17 20:55:00,62.8,24.5,29.91,North,0,2.9,2.9,23,0.00,,---,0.00,VWS V14.01,2013-10-18 03:55:00,
2013-10-17 21:00:00,62.6,24.3,29.91,North,0,2.5,2.5,23,0.00,,---,0.00,VWS V14.01,2013-10-18 04:00:00,
2013-10-17 21:01:00,62.6,24.3,29.91,NW,315,2.9,2.9,23,0.00,,---,0.00,VWS V14.01,2013-10-18 04:01:00,
2013-10-17 21:02:00,62.8,24.5,29.91,NW,315,2.9,2.9,23,0.00,,---,0.00,VWS V14.01,2013-10-18 04:02:00,
2013-10-17 21:07:00,63.3,24.9,29.91,NNW,338,2.5,2.5,23,0.00,,---,0.00,VWS V14.01,2013-10-18 04:07:00,
2013-10-17 21:12:00,62.8,24.5,29.91,NW,315,1.3,3.6,23,0.00,,---,0.00,VWS V14.01,2013-10-18 04:12:00,
2013-10-17 21:17:00,62.2,25.0,29.91,NNE,22,1.1,2.2,24,0.00,,---,0.00,VWS V14.01,2013-10-18 04:17:00,
2013-10-17 21:23:00,61.9,24.7,29.91,NNW,338,2.7,2.7,24,0.00,,---,0.00,VWS V14.01,2013-10-18 04:23:00,
2013-10-17 21:28:00,61.5,24.4,29.91,NW,315,2.2,2.2,24,0.00,,---,0.00,VWS V14.01,2013-10-18 04:28:00,
2013-10-17 21:33:00,61.3,24.3,29.91,NNW,338,2.2,2.2,24,0.00,,---,0.00,VWS V14.01,2013-10-18 04:33:00,
2013-10-17 21:38:00,61.0,24.0,29.91,NNW,338,1.6,1.6,24,0.00,,---,0.00,VWS V14.01,2013-10-18 04:38:00,
2013-10-17 21:43:00,61.0,24.0,29.91,NNW,338,2.5,2.5,24,0.00,,---,0.00,VWS V14.01,2013-10-18 04:43:00,
2013-10-17 21:48:00,61.0,24.0,29.91,NNW,338,3.6,3.6,24,0.00,,---,0.00,VWS V14.01,2013-10-18 04:48:00,
2013-10-17 21:53:00,61.0,24.0,29.91,NNW,338,1.6,3.1,24,0.00,,---,0.00,VWS V14.01,2013-10-18 04:53:00,
2013-10-17 21:58:00,61.0,24.0,29.91,NNW,338,2.2,2.2,24,0.00,,---,0.00,VWS V14.01,2013-10-18 04:58:00,
2013-10-17 22:03:00,60.8,23.8,29.91,NNW,338,2.2,2.2,24,0.00,,---,0.00,VWS V14.01,2013-10-18 05:03:00,
2013-10-17 22:09:00,60.6,23.6,29.91,NNW,338,2.5,2.5,24,0.00,,---,0.00,VWS V14.01,2013-10-18 05:09:00,
2013-10-17 22:14:00,60.6,23.6,29.91,NNW,338,3.1,3.1,24,0.00,,---,0.00,VWS V14.01,2013-10-18 05:14:00,
2013-10-17 22:19:00,60.6,23.6,29.91,NNW,338,1.1,1.1,24,0.00,,---,0.00,VWS V14.01,2013-10-18 05:19:00,
2013-10-17 22:24:00,60.4,23.5,29.91,NW,315,0.9,0.9,24,0.00,,---,0.00,VWS V14.01,2013-10-18 05:24:00,
2013-10-17 22:29:00,60.3,23.4,29.91,NW,315,0.9,0.9,24,0.00,,---,0.00,VWS V14.01,2013-10-18 05:29:00,
2013-10-17 22:34:00,60.3,23.4,29.91,NW,315,0.9,0.9,24,0.00,,---,0.00,VWS V14.01,2013-10-18 05:34:00,
2013-10-17 22:39:00,60.1,23.2,29.91,NW,315,0.9,0.9,24,0.00,,---,0.00,VWS V14.01,2013-10-18 05:39:00,
2013-10-17 22:44:00,60.1,23.2,29.91,NNW,338,1.6,1.6,24,0.00,,---,0.00,VWS V14.01,2013-10-18 05:44:00,
2013-10-17 22:49:00,60.1,23.2,29.91,NNW,338,1.6,1.6,24,0.00,,---,0.00,VWS V14.01,2013-10-18 05:49:00,
2013-10-17 22:54:00,60.1,23.2,29.91,NNW,338,1.6,1.6,24,0.00,,---,0.00,VWS V14.01,2013-10-18 05:54:00,
2013-10-17 22:59:00,59.9,23.0,29.91,NNW,338,1.6,1.6,24,0.00,,---,0.00,VWS V14.01,2013-10-18 05:59:00,
2013-10-17 23:04:00,59.5,22.7,29.91,NNW,338,1.6,1.6,24,0.00,,---,0.00,VWS V14.01,2013-10-18 06:04:00,
2013-10-17 23:09:00,59.4,22.6,29.91,NNW,338,1.6,1.6,24,0.00,,---,0.00,VWS V14.01,2013-10-18 06:09:00,
2013-10-17 23:15:00,58.8,23.1,29.91,NNW,338,1.6,1.6,25,0.00,,---,0.00,VWS V14.01,2013-10-18 06:15:00,
2013-10-17 23:20:00,58.5,22.8,29.91,NNW,338,1.6,1.6,25,0.00,,---,0.00,VWS V14.01,2013-10-18 06:20:00,
2013-10-17 23:25:00,58.3,22.6,29.91,NNW,338,1.6,1.6,25,0.00,,---,0.00,VWS V14.01,2013-10-18 06:25:00,
2013-10-17 23:30:00,58.5,22.8,29.91,NNW,338,1.6,1.6,25,0.00,,---,0.00,VWS V14.01,2013-10-18 06:30:00,
2013-10-17 23:35:00,58.8,23.1,29.91,NNW,338,2.2,2.2,25,0.00,,---,0.00,VWS V14.01,2013-10-18 06:35:00,
2013-10-17 23:40:00,59.0,22.3,29.91,NNW,338,2.2,2.2,24,0.00,,---,0.00,VWS V14.01,2013-10-18 06:40:00,
2013-10-17 23:45:00,59.0,22.3,29.91,NNW,338,2.2,2.2,24,0.00,,---,0.00,VWS V14.01,2013-10-18 06:45:00,
2013-10-17 23:50:00,59.2,22.4,29.91,NNW,338,2.2,2.2,24,0.00,,---,0.00,VWS V14.01,2013-10-18 06:50:00,
2013-10-17 23:56:00,59.0,22.3,29.91,NNW,338,2.2,2.2,24,0.00,,---,0.00,VWS V14.01,2013-10-18 06:56:00,